Time;durP1;ratioP1;P1;durP2;ratioP2;P2;SDS_P1;SDS_P2;PMS_P1;PMS_P2;Temp;Humidity;BMP_temperature;BMP_pressure;BME280_temperature;BME280_humidity;BME280_pressure;Samples;Min_cycle;Max_cycle;Signal;HPM_P1;HPM_P2
2022/10/23 00:05:39;;;;;;;0.90;0.90;;;;;;;19.81;57.24;97139.91;10417422;28;20058;-60
2022/10/23 00:10:58;;;;;;;0.80;0.80;;;;;;;19.79;57.18;97142.13;10407078;28;20064;-60
2022/10/23 00:16:18;;;;;;;0.80;0.80;;;;;;;19.79;57.12;97142.13;10421068;28;20058;-60
2022/10/23 00:21:38;;;;;;;0.90;0.90;;;;;;;19.78;57.19;97132.44;10416374;28;20076;-59
2022/10/23 00:26:57;;;;;;;0.80;0.80;;;;;;;19.77;57.13;97133.53;10403369;28;20065;-60
2022/10/23 00:32:16;;;;;;;0.90;0.90;;;;;;;19.77;57.16;97125.44;10433214;28;20390;-60
2022/10/23 00:37:36;;;;;;;0.95;0.93;;;;;;;19.76;57.14;97129.25;10429185;28;20054;-60
2022/10/23 00:42:55;;;;;;;0.90;0.90;;;;;;;19.75;57.10;97122.25;10419261;28;20057;-60
2022/10/23 00:48:15;;;;;;;0.90;0.90;;;;;;;19.77;57.16;97135.47;10404760;28;20056;-60
2022/10/23 00:53:35;;;;;;;0.80;0.80;;;;;;;19.75;57.11;97127.66;10401090;28;20054;-60
2022/10/23 00:58:54;;;;;;;1.00;0.95;;;;;;;19.74;57.05;97126.88;10414794;28;20057;-60
2022/10/23 01:04:13;;;;;;;1.02;0.70;;;;;;;19.73;57.17;97133.38;10406348;28;20050;-60
2022/10/23 01:10:03;;;;;;;0.80;0.80;;;;;;;19.72;57.19;97131.81;10399291;28;20058;-59
2022/10/23 01:15:43;;;;;;;0.80;0.80;;;;;;;19.71;57.13;97130.19;10388459;28;20069;-60
2022/10/23 01:21:30;;;;;;;0.90;0.90;;;;;;;19.70;57.17;97131.28;10399363;28;20087;-60
2022/10/23 01:26:55;;;;;;;0.70;0.70;;;;;;;19.70;57.08;97130.50;10407486;28;20056;-60
2022/10/23 01:32:35;;;;;;;0.80;0.80;;;;;;;19.70;57.14;97142.09;10399522;28;20080;-60
2022/10/23 01:38:02;;;;;;;0.80;0.70;;;;;;;19.69;57.18;97147.81;10368925;28;20057;-60
2022/10/23 01:43:28;;;;;;;0.80;0.80;;;;;;;19.68;57.06;97143.50;10383607;28;20062;-59
2022/10/23 01:48:51;;;;;;;0.80;0.80;;;;;;;19.67;57.16;97140.03;10398615;28;20064;-60
2022/10/23 01:54:12;;;;;;;0.75;0.75;;;;;;;19.66;57.16;97127.63;10383657;28;20054;-60
2022/10/23 01:59:42;;;;;;;1.20;0.80;;;;;;;19.67;57.05;97120.31;10390149;28;20084;-59
2022/10/23 02:05:14;;;;;;;0.80;0.80;;;;;;;19.65;57.00;97117.13;10397515;28;20053;-59
2022/10/23 02:10:43;;;;;;;0.88;0.88;;;;;;;19.64;57.17;97116.34;10383564;28;20551;-60
2022/10/23 02:16:25;;;;;;;0.85;0.85;;;;;;;19.64;57.04;97115.53;10406459;28;20057;-60
2022/10/23 02:21:51;;;;;;;0.68;0.68;;;;;;;19.64;57.06;97118.22;10419158;28;20493;-60
2022/10/23 02:27:19;;;;;;;0.75;0.75;;;;;;;19.63;57.00;97116.66;10441532;28;20500;-60
2022/10/23 02:32:46;;;;;;;0.73;0.73;;;;;;;19.62;56.95;97118.56;10392819;28;20049;-60
2022/10/23 02:38:29;;;;;;;0.68;0.68;;;;;;;19.62;57.06;97125.84;10405574;28;20053;-60
2022/10/23 02:44:12;;;;;;;0.70;0.70;;;;;;;19.62;57.02;97117.75;10415655;28;20058;-60
2022/10/23 02:49:55;;;;;;;0.77;0.68;;;;;;;19.61;57.06;97110.78;10418890;28;20401;-60
2022/10/23 02:55:56;;;;;;;0.70;0.70;;;;;;;19.59;57.09;97110.28;10424412;28;20100;-59
2022/10/23 03:01:25;;;;;;;0.70;0.70;;;;;;;19.60;57.07;97103.75;10411292;28;20057;-60
2022/10/23 03:06:45;;;;;;;0.60;0.60;;;;;;;19.59;57.14;97110.28;10390396;28;20069;-60
2022/10/23 03:12:09;;;;;;;0.88;0.70;;;;;;;19.58;57.04;97108.69;10397695;28;20057;-60
2022/10/23 03:17:29;;;;;;;0.70;0.70;;;;;;;19.58;57.17;97108.69;10403527;28;20088;-59
2022/10/23 03:22:51;;;;;;;0.60;0.60;;;;;;;19.56;56.96;97120.63;10415623;28;20558;-60
2022/10/23 03:28:10;;;;;;;0.82;0.80;;;;;;;19.56;57.03;97123.34;10434134;28;20061;-60
2022/10/23 03:33:30;;;;;;;0.60;0.60;;;;;;;19.55;57.02;97116.31;10416778;28;20467;-60
2022/10/23 03:38:59;;;;;;;0.80;0.80;;;;;;;19.53;56.97;97107.72;10404000;28;20068;-60
2022/10/23 03:44:18;;;;;;;0.70;0.70;;;;;;;19.53;57.00;97107.72;10392774;28;20520;-60
2022/10/23 03:49:38;;;;;;;0.70;0.70;;;;;;;19.53;56.86;97101.53;10413618;28;20115;-60
2022/10/23 03:54:59;;;;;;;0.60;0.60;;;;;;;19.51;57.02;97117.28;10408310;28;20049;-60
2022/10/23 04:00:19;;;;;;;0.60;0.60;;;;;;;19.52;57.04;97122.38;10417331;28;20061;-60
2022/10/23 04:05:40;;;;;;;0.68;0.68;;;;;;;19.51;56.99;97115.38;10417231;28;20060;-61
2022/10/23 04:11:01;;;;;;;0.70;0.70;;;;;;;19.51;57.01;97114.56;10397326;28;20057;-58
2022/10/23 04:16:33;;;;;;;0.60;0.60;;;;;;;19.50;56.94;97108.38;10401323;28;20049;-60
2022/10/23 04:21:53;;;;;;;0.80;0.80;;;;;;;19.49;56.98;97093.28;10401492;28;20050;-59
2022/10/23 04:27:12;;;;;;;0.98;0.98;;;;;;;19.49;56.92;97095.19;10429133;28;20119;-60
2022/10/23 04:32:32;;;;;;;0.60;0.60;;;;;;;19.48;56.99;97096.28;10414167;28;20060;-60
2022/10/23 04:37:51;;;;;;;0.65;0.65;;;;;;;19.47;56.92;97092.00;10415096;28;20496;-59
2022/10/23 04:43:10;;;;;;;0.70;0.70;;;;;;;19.46;57.08;97093.09;10401568;28;20049;-60
2022/10/23 04:48:32;;;;;;;0.60;0.60;;;;;;;19.46;57.02;97101.22;10400514;28;20103;-60
2022/10/23 04:54:10;;;;;;;1.48;0.70;;;;;;;19.45;57.00;97086.13;10422669;28;20065;-60
2022/10/23 04:59:37;;;;;;;0.60;0.60;;;;;;;19.44;56.89;97082.59;10413224;28;20475;-60
2022/10/23 05:04:57;;;;;;;0.60;0.60;;;;;;;19.45;56.97;97083.41;10399441;28;20045;-60
2022/10/23 05:10:40;;;;;;;0.60;0.60;;;;;;;19.43;56.87;97086.44;10417784;28;20061;-60
2022/10/23 05:16:07;;;;;;;0.65;0.65;;;;;;;19.42;57.00;97089.44;10414603;28;20064;-60
2022/10/23 05:21:28;;;;;;;0.70;0.70;;;;;;;19.42;56.92;97095.63;10399333;28;20061;-60
2022/10/23 05:26:51;;;;;;;0.60;0.60;;;;;;;19.42;57.01;97084.81;10401546;28;20058;-57
2022/10/23 05:32:13;;;;;;;0.70;0.70;;;;;;;19.41;56.90;97088.66;10399015;28;20119;-60
2022/10/23 05:37:37;;;;;;;0.98;0.70;;;;;;;19.41;57.08;97090.56;10400218;28;20053;-60
2022/10/23 05:43:01;;;;;;;0.70;0.70;;;;;;;19.40;57.13;97097.84;10410438;28;20045;-60
2022/10/23 05:48:40;;;;;;;0.60;0.60;;;;;;;19.41;56.94;97094.06;10398497;28;20103;-59
2022/10/23 05:54:09;;;;;;;0.50;0.50;;;;;;;19.40;56.99;97092.44;10420677;28;20056;-60
2022/10/23 05:59:34;;;;;;;0.60;0.60;;;;;;;19.40;56.98;97094.38;10412853;28;20061;-60
2022/10/23 06:05:14;;;;;;;0.68;0.60;;;;;;;19.39;57.05;97101.69;10398125;28;20077;-58
2022/10/23 06:10:35;;;;;;;0.75;0.75;;;;;;;19.40;56.95;97097.84;10421133;28;20416;-60
2022/10/23 06:15:57;;;;;;;0.60;0.60;;;;;;;19.40;56.94;97105.97;10398256;28;20050;-59
2022/10/23 06:21:19;;;;;;;0.70;0.70;;;;;;;19.43;56.98;97123.47;10412661;28;20065;-60
2022/10/23 06:26:41;;;;;;;0.60;0.60;;;;;;;19.44;56.94;97119.66;10405032;28;20054;-60
2022/10/23 06:32:04;;;;;;;0.60;0.60;;;;;;;19.46;56.92;97128.22;10397578;28;20069;-60
2022/10/23 06:37:23;;;;;;;0.65;0.65;;;;;;;19.48;56.96;97129.53;10403112;28;20065;-59
2022/10/23 06:42:54;;;;;;;0.65;0.65;;;;;;;19.50;56.91;97140.00;10399768;28;20048;-60
2022/10/23 06:48:20;;;;;;;0.60;0.60;;;;;;;19.52;56.99;97144.00;10421330;28;20104;-58
2022/10/23 06:54:02;;;;;;;0.80;0.80;;;;;;;19.55;57.07;97147.97;10412259;28;20497;-60
2022/10/23 06:59:50;;;;;;;0.63;0.63;;;;;;;19.56;56.98;97147.66;10411854;28;20061;-57
2022/10/23 07:05:11;;;;;;;0.70;0.70;;;;;;;19.60;57.03;97147.00;10404054;28;20058;-60
2022/10/23 07:10:31;;;;;;;0.50;0.50;;;;;;;19.63;57.06;97151.78;10401071;28;20390;-60
2022/10/23 07:15:53;;;;;;;0.80;0.57;;;;;;;19.66;57.19;97160.06;10404203;28;20053;-60
2022/10/23 07:21:17;;;;;;;0.50;0.50;;;;;;;19.68;57.28;97141.63;10435270;28;20045;-60
2022/10/23 07:26:37;;;;;;;0.60;0.60;;;;;;;19.72;57.28;97147.22;10418465;28;20455;-60
2022/10/23 07:31:59;;;;;;;0.68;0.68;;;;;;;19.74;57.22;97147.72;10403002;28;20574;-60
2022/10/23 07:37:34;;;;;;;0.70;0.70;;;;;;;19.79;57.18;97135.94;10423860;28;20452;-60
2022/10/23 07:42:56;;;;;;;0.80;0.80;;;;;;;19.82;57.10;97138.81;10415339;28;20041;-60
2022/10/23 07:48:16;;;;;;;0.68;0.57;;;;;;;19.85;57.19;97121.94;10403520;28;20085;-60
2022/10/23 07:53:55;;;;;;;0.60;0.60;;;;;;;19.89;57.06;97122.09;10412501;28;20053;-60
2022/10/23 07:59:35;;;;;;;0.70;0.70;;;;;;;19.93;57.09;97120.34;10394148;28;20425;-60
2022/10/23 08:04:59;;;;;;;0.60;0.60;;;;;;;19.97;57.02;97123.22;10415952;28;20049;-58
2022/10/23 08:10:25;;;;;;;0.60;0.60;;;;;;;20.00;57.10;97128.78;10404958;28;20049;-60
2022/10/23 08:15:47;;;;;;;0.68;0.68;;;;;;;20.04;56.91;97129.72;10402112;28;20408;-60
2022/10/23 08:21:26;;;;;;;0.70;0.70;;;;;;;20.08;56.93;97129.88;10437796;28;20496;-60
2022/10/23 08:26:50;;;;;;;0.80;0.80;;;;;;;20.12;57.14;97133.53;10401806;28;20054;-60
2022/10/23 08:32:12;;;;;;;2.70;0.75;;;;;;;20.18;57.32;97126.06;10401666;28;20060;-60
2022/10/23 08:37:48;;;;;;;0.70;0.70;;;;;;;20.24;57.21;97127.50;10425870;28;20049;-60
2022/10/23 08:43:18;;;;;;;0.80;0.80;;;;;;;20.26;57.21;97131.44;10414563;28;20510;-61
2022/10/23 08:49:12;;;;;;;0.60;0.60;;;;;;;20.30;57.12;97129.69;10401845;28;20512;-60
2022/10/23 08:54:56;;;;;;;0.90;0.70;;;;;;;20.33;57.10;97115.53;10399660;28;20053;-60
2022/10/23 09:00:17;;;;;;;0.73;0.68;;;;;;;20.36;57.07;97111.38;10428648;28;20053;-60
2022/10/23 09:06:15;;;;;;;0.70;0.70;;;;;;;20.38;57.00;97102.94;10413511;28;20045;-61
2022/10/23 09:11:41;;;;;;;;;;;;;;;20.41;57.01;97094.19;10400155;28;20096;-60
2022/10/23 09:17:25;;;;;;;0.65;0.65;;;;;;;20.43;56.99;97095.47;10414311;28;19921;-60
2022/10/23 09:22:46;;;;;;;0.70;0.70;;;;;;;20.44;57.00;97094.31;10401491;28;20049;-60
2022/10/23 09:28:18;;;;;;;1.08;0.80;;;;;;;20.45;57.15;97079.69;10399619;28;20057;-61
2022/10/23 09:33:38;;;;;;;0.80;0.80;;;;;;;20.47;57.10;97084.78;10414317;28;20064;-61
2022/10/23 09:38:59;;;;;;;0.98;0.80;;;;;;;20.48;57.04;97089.88;10421512;28;20045;-60
2022/10/23 09:44:25;;;;;;;0.82;0.82;;;;;;;20.49;57.11;97094.16;10401321;28;20058;-60
2022/10/23 09:49:49;;;;;;;0.75;0.70;;;;;;;20.51;57.00;97102.75;10390416;28;20061;-60
2022/10/23 09:55:21;;;;;;;0.95;0.80;;;;;;;20.52;57.03;97098.13;10418252;28;20061;-60
2022/10/23 10:00:46;;;;;;;0.95;0.85;;;;;;;20.53;57.08;97092.41;10411334;28;20225;-60
2022/10/23 10:06:25;;;;;;;1.10;1.00;;;;;;;20.55;57.01;97102.91;10415418;28;20052;-60
2022/10/23 10:11:54;;;;;;;1.75;0.88;;;;;;;20.54;57.10;97085.88;10416749;28;20056;-60
2022/10/23 10:17:34;;;;;;;0.82;0.80;;;;;;;20.56;57.16;97082.84;10413108;28;20054;-60
2022/10/23 10:23:05;;;;;;;0.88;0.75;;;;;;;20.58;57.18;97082.50;10402970;28;20045;-60
2022/10/23 10:29:04;;;;;;;1.45;1.20;;;;;;;20.59;57.28;97076.00;10398910;28;20057;-60
2022/10/23 10:34:47;;;;;;;1.08;0.90;;;;;;;20.59;57.20;97060.56;10420732;28;20076;-58
2022/10/23 10:40:13;;;;;;;1.40;1.00;;;;;;;20.60;57.38;97070.28;10419147;28;20057;-60
2022/10/23 10:45:38;;;;;;;1.55;1.10;;;;;;;20.61;57.36;97058.34;10430328;28;20493;-61
2022/10/23 10:51:35;;;;;;;0.90;0.70;;;;;;;20.62;57.36;97049.09;10423900;28;20057;-60
2022/10/23 10:56:57;;;;;;;1.95;0.75;;;;;;;20.61;57.39;97030.47;10410135;28;20114;-60
2022/10/23 11:02:51;;;;;;;0.85;0.85;;;;;;;20.61;57.42;97028.56;10404878;28;20053;-61
2022/10/23 11:08:26;;;;;;;0.90;0.77;;;;;;;20.63;57.25;97028.25;10422697;28;20504;-60
2022/10/23 11:13:46;;;;;;;2.53;0.77;;;;;;;20.63;57.37;97015.50;10417772;28;20064;-60
2022/10/23 11:19:27;;;;;;;0.70;0.70;;;;;;;20.64;57.25;97011.69;10406471;28;20102;-60
2022/10/23 11:25:12;;;;;;;1.00;0.90;;;;;;;20.65;57.36;97009.75;10413023;28;20501;-56
2022/10/23 11:30:43;;;;;;;1.02;0.90;;;;;;;20.64;57.33;96992.72;10418738;28;20076;-60
2022/10/23 11:36:13;;;;;;;0.70;0.70;;;;;;;20.64;57.42;96987.31;10429237;28;20141;-60
2022/10/23 11:41:33;;;;;;;0.82;0.82;;;;;;;20.66;57.43;96974.25;10417101;28;20057;-60
2022/10/23 11:47:01;;;;;;;1.30;0.70;;;;;;;20.65;57.43;96969.94;10401868;28;20064;-60
2022/10/23 11:52:22;;;;;;;1.27;0.90;;;;;;;20.66;57.42;96976.97;10422133;28;20049;-60
2022/10/23 11:57:45;;;;;;;1.80;1.00;;;;;;;20.66;57.46;96968.00;10417566;28;20061;-60
2022/10/23 12:03:16;;;;;;;1.33;0.88;;;;;;;20.65;57.47;96964.53;10402151;28;20049;-59
2022/10/23 12:08:38;;;;;;;1.63;0.80;;;;;;;20.65;57.46;96951.00;10418845;28;20049;-61
2022/10/23 12:13:58;;;;;;;3.00;0.90;;;;;;;20.65;57.44;96950.22;10421789;28;20057;-60
2022/10/23 12:19:20;;;;;;;1.95;0.90;;;;;;;20.66;57.49;96941.75;10417685;28;20216;-60
2022/10/23 12:25:01;;;;;;;1.65;0.90;;;;;;;20.64;57.63;96935.88;10428429;28;20485;-60
2022/10/23 12:30:30;;;;;;;1.63;0.75;;;;;;;20.65;57.50;96917.72;10416148;28;20064;-60
2022/10/23 12:36:15;;;;;;;2.23;0.90;;;;;;;20.65;57.62;96907.69;10428895;28;20054;-60
2022/10/23 12:41:37;;;;;;;3.40;1.02;;;;;;;20.66;57.52;96908.47;10428959;28;20054;-59
2022/10/23 12:46:59;;;;;;;1.90;0.95;;;;;;;20.66;57.55;96889.50;10415316;28;20106;-60
2022/10/23 12:52:19;;;;;;;3.15;1.00;;;;;;;20.64;57.57;96884.44;10439098;28;20064;-60
2022/10/23 12:57:42;;;;;;;2.13;1.10;;;;;;;20.66;57.71;96875.97;10415482;28;20411;-60
2022/10/23 13:03:03;;;;;;;4.07;1.23;;;;;;;20.67;57.84;96874.88;10399785;28;20057;-60
2022/10/23 13:08:23;;;;;;;3.78;1.30;;;;;;;20.67;58.00;96866.75;10417046;28;20053;-61
2022/10/23 13:14:10;;;;;;;4.22;1.30;;;;;;;20.67;57.98;96856.72;10402892;28;20088;-60
2022/10/23 13:19:30;;;;;;;3.90;1.17;;;;;;;20.67;57.95;96872.16;10419567;28;20064;-61
2022/10/23 13:24:50;;;;;;;2.40;0.98;;;;;;;20.67;58.07;96855.94;10396012;28;20048;-60
2022/10/23 13:30:30;;;;;;;5.10;1.23;;;;;;;20.67;58.10;96862.13;10427539;28;20447;-60
2022/10/23 13:35:57;;;;;;;2.42;1.00;;;;;;;20.67;58.10;96862.13;10421764;28;20057;-61
2022/10/23 13:41:18;;;;;;;3.63;1.10;;;;;;;20.66;58.58;96865.97;10412378;28;20045;-60
2022/10/23 13:46:37;;;;;;;2.65;1.15;;;;;;;20.66;58.89;96863.25;10411567;28;20057;-61
2022/10/23 13:51:56;;;;;;;2.08;1.05;;;;;;;20.66;58.70;96865.97;10426077;28;20061;-59
2022/10/23 13:57:16;;;;;;;1.90;0.90;;;;;;;20.67;58.56;96858.63;10413620;28;20132;-60
2022/10/23 14:02:35;;;;;;;3.08;1.00;;;;;;;20.66;58.28;96862.44;10413837;28;20057;-60
2022/10/23 14:07:55;;;;;;;1.55;0.80;;;;;;;20.65;58.29;96858.97;10427040;28;20096;-60
2022/10/23 14:13:15;;;;;;;1.92;1.00;;;;;;;20.65;58.26;96842.72;10425726;28;20057;-59
2022/10/23 14:18:34;;;;;;;3.90;1.70;;;;;;;20.65;58.24;96837.31;10439354;28;20053;-60
2022/10/23 14:23:53;;;;;;;12.52;2.58;;;;;;;20.64;58.04;96827.59;10421584;28;20064;-59
2022/10/23 14:29:13;;;;;;;6.63;2.33;;;;;;;20.65;58.02;96828.41;10425882;28;20107;-60
2022/10/23 14:34:32;;;;;;;6.57;2.20;;;;;;;20.64;58.04;96824.09;10428169;28;20111;-61
2022/10/23 14:39:51;;;;;;;5.00;2.35;;;;;;;20.63;58.29;96842.25;10425967;28;20085;-61
2022/10/23 14:45:10;;;;;;;7.32;2.72;;;;;;;20.63;59.32;96844.97;10417119;28;20119;-61
2022/10/23 14:50:31;;;;;;;5.22;2.00;;;;;;;20.63;59.58;96833.34;10440279;28;20045;-60
2022/10/23 14:55:51;;;;;;;6.18;2.28;;;;;;;20.62;59.51;96837.97;10417750;28;20061;-60
2022/10/23 15:01:11;;;;;;;3.75;1.60;;;;;;;20.62;59.25;96821.75;10434086;28;20489;-61
2022/10/23 15:06:30;;;;;;;5.40;1.60;;;;;;;20.61;59.15;96798.50;10427785;28;20500;-61
2022/10/23 15:11:50;;;;;;;2.72;1.30;;;;;;;20.60;58.91;96796.91;10424736;28;20404;-60
2022/10/23 15:17:09;;;;;;;3.00;1.30;;;;;;;20.60;58.68;96813.16;10421716;28;20065;-61
2022/10/23 15:22:28;;;;;;;5.68;1.65;;;;;;;20.59;58.61;96800.72;10436854;28;20634;-60
2022/10/23 15:27:48;;;;;;;2.33;1.50;;;;;;;20.59;58.44;96800.72;10431982;28;20390;-61
2022/10/23 15:33:07;;;;;;;3.05;1.88;;;;;;;20.59;58.28;96789.09;10426581;28;20060;-60
2022/10/23 15:38:26;;;;;;;3.17;1.73;;;;;;;20.58;58.26;96792.91;10418357;28;20068;-60
2022/10/23 15:43:46;;;;;;;4.15;1.90;;;;;;;20.55;58.25;96789.75;10409384;28;20487;-60
2022/10/23 15:49:07;;;;;;;4.25;2.50;;;;;;;20.55;58.15;96800.56;10425614;28;20118;-61
2022/10/23 15:54:26;;;;;;;6.13;2.75;;;;;;;20.55;57.84;96805.19;10431091;28;20056;-60
2022/10/23 15:59:46;;;;;;;4.40;2.90;;;;;;;20.52;57.58;96803.94;10417368;28;21198;-61
2022/10/23 16:05:06;;;;;;;4.63;2.92;;;;;;;20.52;57.26;96808.56;10424221;28;20046;-61
2022/10/23 16:10:25;;;;;;;3.70;2.78;;;;;;;20.51;56.92;96782.63;10401211;28;20500;-60
2022/10/23 16:15:46;;;;;;;3.60;2.50;;;;;;;20.49;56.68;96784.88;10415845;28;20057;-61
2022/10/23 16:21:06;;;;;;;4.00;2.97;;;;;;;20.48;56.49;96783.28;10420422;28;20053;-61
2022/10/23 16:26:27;;;;;;;7.25;2.95;;;;;;;20.47;56.34;96781.69;10401455;28;20057;-60
2022/10/23 16:31:47;;;;;;;5.05;3.28;;;;;;;20.45;56.13;96775.84;10429496;28;20053;-61
2022/10/23 16:37:06;;;;;;;7.07;3.53;;;;;;;20.45;55.84;96778.53;10435159;28;20452;-61
2022/10/23 16:42:39;;;;;;;5.65;3.42;;;;;;;20.43;55.68;96786.19;10414368;28;20058;-60
2022/10/23 16:48:05;;;;;;;6.82;4.03;;;;;;;20.42;55.60;96779.97;10420252;28;20049;-61
2022/10/23 16:53:27;;;;;;;6.78;4.90;;;;;;;20.40;55.37;96776.81;10418648;28;20049;-60
2022/10/23 16:58:47;;;;;;;5.63;4.38;;;;;;;20.40;55.27;96762.50;10414947;28;20193;-60
2022/10/23 17:04:09;;;;;;;5.72;5.05;;;;;;;20.40;55.13;96757.06;10419518;28;20085;-61
2022/10/23 17:09:30;;;;;;;9.70;5.63;;;;;;;20.38;55.07;96762.03;10414233;28;20472;-61
2022/10/23 17:14:49;;;;;;;8.32;5.55;;;;;;;20.37;54.97;96763.16;10414497;28;20045;-60
2022/10/23 17:20:10;;;;;;;7.78;5.88;;;;;;;20.35;54.92;96758.88;10417065;28;20779;-61
2022/10/23 17:25:29;;;;;;;8.93;6.53;;;;;;;20.34;54.76;96754.56;10414486;28;20080;-61
2022/10/23 17:30:49;;;;;;;11.52;7.78;;;;;;;20.33;54.64;96746.78;10414002;28;20068;-60
2022/10/23 17:36:10;;;;;;;13.80;8.23;;;;;;;20.32;54.48;96762.22;10421685;28;20053;-60
2022/10/23 17:41:29;;;;;;;11.60;8.48;;;;;;;20.31;54.50;96757.94;10425922;28;20448;-59
2022/10/23 17:46:53;;;;;;;10.75;8.00;;;;;;;20.30;54.20;96742.81;10413807;28;20563;-60
2022/10/23 17:52:13;;;;;;;16.73;13.00;;;;;;;20.28;53.80;96736.16;10409846;28;20064;-61
2022/10/23 17:57:34;;;;;;;18.60;12.35;;;;;;;20.26;53.64;96733.00;10424338;28;20054;-62
2022/10/23 18:02:53;;;;;;;16.20;12.27;;;;;;;20.26;54.36;96731.06;10413579;28;20502;-60
2022/10/23 18:08:13;;;;;;;18.13;12.07;;;;;;;20.25;54.78;96748.44;10412963;28;20080;-61
2022/10/23 18:13:36;;;;;;;14.55;11.32;;;;;;;20.25;55.16;96734.91;10413022;28;20057;-61
2022/10/23 18:18:58;;;;;;;14.20;10.55;;;;;;;20.26;55.40;96750.00;10420744;28;20248;-61
2022/10/23 18:24:17;;;;;;;14.82;10.57;;;;;;;20.25;55.73;96753.84;10413006;28;20054;-61
2022/10/23 18:29:38;;;;;;;11.63;10.07;;;;;;;20.27;55.87;96761.66;10412712;28;20083;-61
2022/10/23 18:34:57;;;;;;;14.45;10.52;;;;;;;20.24;55.92;96736.03;10420256;28;20058;-61
2022/10/23 18:40:17;;;;;;;15.38;10.43;;;;;;;20.25;56.17;96740.31;10412468;28;20065;-59
2022/10/23 18:45:41;;;;;;;13.40;9.82;;;;;;;20.25;56.45;96736.84;10391797;28;20108;-58
2022/10/23 18:51:00;;;;;;;12.50;9.65;;;;;;;20.24;56.61;96746.84;10401360;28;20057;-57
2022/10/23 18:56:22;;;;;;;14.95;10.23;;;;;;;20.24;56.61;96746.84;10420119;28;20447;-57
2022/10/23 19:01:42;;;;;;;15.85;10.00;;;;;;;20.24;57.04;96735.25;10425306;28;20140;-57
2022/10/23 19:07:01;;;;;;;12.35;9.38;;;;;;;20.24;57.25;96719.00;10423156;28;20060;-57
2022/10/23 19:12:21;;;;;;;13.00;9.43;;;;;;;20.24;57.37;96705.50;10416172;28;20455;-60
2022/10/23 19:17:41;;;;;;;13.82;9.15;;;;;;;20.24;57.45;96697.38;10434446;28;20057;-59
2022/10/23 19:23:01;;;;;;;12.68;9.20;;;;;;;20.22;57.56;96695.00;10418884;28;20053;-60
2022/10/23 19:28:21;;;;;;;12.95;8.85;;;;;;;20.22;57.71;96686.88;10419036;28;20064;-59
2022/10/23 19:33:40;;;;;;;11.70;8.63;;;;;;;20.23;57.90;96684.94;10426323;28;20061;-58
2022/10/23 19:39:00;;;;;;;13.40;8.75;;;;;;;20.22;57.91;96675.28;10417812;28;20057;-60
2022/10/23 19:44:20;;;;;;;13.50;8.60;;;;;;;20.23;57.89;96660.63;10417320;28;20053;-60
2022/10/23 19:49:39;;;;;;;11.40;7.72;;;;;;;20.22;58.06;96634.69;10432695;28;20405;-60
2022/10/23 19:54:59;;;;;;;14.55;7.68;;;;;;;20.21;58.10;96635.81;10417944;28;20343;-58
2022/10/23 20:00:19;;;;;;;12.02;7.85;;;;;;;20.19;58.12;96649.69;10418901;28;20072;-58
2022/10/23 20:05:44;;;;;;;9.73;7.60;;;;;;;20.19;58.25;96646.97;10418274;28;20053;-61
2022/10/23 20:11:04;;;;;;;10.25;7.53;;;;;;;20.19;58.31;96646.97;10416779;28;20053;-59
2022/10/23 20:16:30;;;;;;;12.00;7.32;;;;;;;20.20;58.26;96645.06;10429942;28;20057;-61
2022/10/23 20:21:50;;;;;;;9.43;7.40;;;;;;;20.18;58.27;96645.38;10417341;28;20057;-61
2022/10/23 20:27:12;;;;;;;10.95;7.07;;;;;;;20.18;58.24;96650.78;10416952;28;20057;-61
2022/10/23 20:32:32;;;;;;;10.35;7.47;;;;;;;20.15;58.29;96636.03;10401348;28;20527;-61
2022/10/23 20:37:52;;;;;;;10.20;7.63;;;;;;;20.15;58.37;96640.66;10415733;28;20107;-61
2022/10/23 20:43:11;;;;;;;9.20;6.97;;;;;;;20.14;58.46;96637.13;10412836;28;20125;-61
2022/10/23 20:48:34;;;;;;;11.68;6.88;;;;;;;20.14;58.39;96623.63;10416726;28;20112;-60
2022/10/23 20:53:53;;;;;;;9.90;6.90;;;;;;;20.14;58.51;96617.44;10416263;28;20080;-61
2022/10/23 20:59:15;;;;;;;9.45;7.22;;;;;;;20.13;58.34;96610.41;10415676;28;20061;-62
2022/10/23 21:04:34;;;;;;;10.43;7.25;;;;;;;20.12;58.47;96606.16;10432937;28;20057;-61
2022/10/23 21:09:54;;;;;;;8.13;6.38;;;;;;;20.10;58.46;96606.47;10414498;28;20061;-60
2022/10/23 21:15:13;;;;;;;10.45;7.32;;;;;;;20.10;58.53;96603.78;10418652;28;20053;-61
2022/10/23 21:20:32;;;;;;;9.80;6.78;;;;;;;20.10;58.47;96611.88;10415087;28;20061;-61
2022/10/23 21:25:51;;;;;;;9.35;6.53;;;;;;;20.10;58.52;96616.50;10414617;28;20054;-61
2022/10/23 21:31:13;;;;;;;10.57;6.72;;;;;;;20.08;58.50;96621.47;10405082;28;20061;-61
2022/10/23 21:36:33;;;;;;;11.05;6.45;;;;;;;20.08;58.56;96624.16;10413329;28;20501;-61
2022/10/23 21:41:52;;;;;;;10.10;6.57;;;;;;;20.08;58.50;96624.16;10413735;28;20064;-61
2022/10/23 21:48:01;;;;;;;10.35;6.65;;;;;;;20.07;58.55;96622.56;10417226;28;20061;-61
2022/10/23 21:53:21;;;;;;;10.80;6.93;;;;;;;20.07;58.53;96619.88;10410273;28;20140;-61
2022/10/23 21:58:40;;;;;;;8.25;6.15;;;;;;;20.06;58.67;96615.59;10415257;28;20064;-60
2022/10/23 22:03:59;;;;;;;9.75;6.55;;;;;;;20.05;58.50;96603.19;10407056;28;20401;-60
2022/10/23 22:09:19;;;;;;;9.48;6.30;;;;;;;20.04;58.56;96618.63;10413270;28;20068;-61
2022/10/23 22:14:39;;;;;;;8.30;6.53;;;;;;;20.04;58.57;96617.84;10426601;28;20056;-61
2022/10/23 22:19:59;;;;;;;9.85;6.00;;;;;;;20.04;58.49;96639.47;10413594;28;20061;-61
2022/10/23 22:25:18;;;;;;;8.98;6.47;;;;;;;20.03;58.64;96657.63;10415031;28;20057;-60
2022/10/23 22:30:37;;;;;;;6.97;5.82;;;;;;;20.04;58.56;96669.22;10422850;28;20559;-61
2022/10/23 22:36:01;;;;;;;7.90;5.63;;;;;;;20.02;58.57;96707.41;10413956;28;20049;-61
2022/10/23 22:41:21;;;;;;;8.00;5.93;;;;;;;20.01;58.53;96651.72;10406095;28;20061;-60
2022/10/23 22:46:41;;;;;;;9.23;6.20;;;;;;;20.01;58.58;96677.97;10428012;28;20062;-61
2022/10/23 22:52:00;;;;;;;7.82;5.88;;;;;;;20.00;58.43;96671.78;10420918;28;20049;-60
2022/10/23 22:57:19;;;;;;;6.75;5.18;;;;;;;20.01;58.65;96669.88;10420249;28;20068;-60
2022/10/23 23:02:39;;;;;;;6.97;5.72;;;;;;;19.99;58.47;96697.22;10424413;28;20058;-63
2022/10/23 23:07:59;;;;;;;6.60;5.25;;;;;;;19.99;58.63;96712.66;10419728;28;20053;-60
2022/10/23 23:13:18;;;;;;;8.63;5.85;;;;;;;19.98;58.61;96709.19;10421232;28;20053;-61
2022/10/23 23:18:38;;;;;;;9.43;5.50;;;;;;;19.97;58.61;96725.72;10404464;28;20061;-60
2022/10/23 23:23:57;;;;;;;8.23;5.43;;;;;;;19.97;58.62;96752.75;10419027;28;20049;-61
2022/10/23 23:29:17;;;;;;;6.72;5.40;;;;;;;19.96;58.59;96757.38;10422780;28;20057;-60
2022/10/23 23:34:36;;;;;;;7.82;5.22;;;;;;;19.97;58.59;96744.66;10418812;28;20057;-61
2022/10/23 23:39:56;;;;;;;7.38;5.32;;;;;;;19.95;58.65;96739.56;10417805;28;20084;-61
2022/10/23 23:45:15;;;;;;;6.35;5.03;;;;;;;19.95;58.59;96753.09;10415506;28;20053;-60
2022/10/23 23:50:35;;;;;;;7.82;5.07;;;;;;;19.94;58.56;96757.72;10417523;28;20509;-60
2022/10/23 23:55:55;;;;;;;6.25;5.03;;;;;;;19.95;58.63;96772.81;10431321;28;20444;-60
